Time;durP1;ratioP1;P1;durP2;ratioP2;P2;SDS_P1;SDS_P2;PMS_P1;PMS_P2;Temp;Humidity;BMP_temperature;BMP_pressure;BME280_temperature;BME280_humidity;BME280_pressure;Samples;Min_cycle;Max_cycle;Signal;HPM_P1;HPM_P2
2022/04/11 00:01:29;;;;;;;5.63;3.72;;;;;;;3.39;88.20;95781.53;6367789;22;20059;-59
2022/04/11 00:03:54;;;;;;;4.05;3.75;;;;;;;3.41;87.41;95781.44;6368061;22;20299;-60
2022/04/11 00:06:20;;;;;;;4.78;4.28;;;;;;;3.38;87.95;95785.06;6368334;22;20006;-59
2022/04/11 00:08:45;;;;;;;10.63;4.97;;;;;;;3.29;88.12;95785.63;6367489;22;19995;-58
2022/04/11 00:11:11;;;;;;;4.32;3.92;;;;;;;3.30;88.33;95787.31;6367709;22;20006;-59
2022/04/11 00:13:36;;;;;;;6.00;4.13;;;;;;;3.28;88.60;95783.97;6368280;22;20003;-59
2022/04/11 00:16:02;;;;;;;7.10;4.70;;;;;;;3.33;87.75;95792.31;6367692;22;19998;-59
2022/04/11 00:18:27;;;;;;;11.15;6.20;;;;;;;3.32;88.31;95785.44;6367517;22;20006;-59
2022/04/11 00:20:53;;;;;;;12.95;9.00;;;;;;;3.28;87.79;95779.59;6367721;22;20063;-59
2022/04/11 00:23:18;;;;;;;10.65;6.13;;;;;;;3.33;87.09;95783.69;6367414;22;20013;-59
2022/04/11 00:25:44;;;;;;;6.38;4.28;;;;;;;3.37;86.97;95779.97;6367547;22;19998;-59
2022/04/11 00:28:09;;;;;;;7.82;5.07;;;;;;;3.29;87.30;95778.66;6367429;22;20010;-59
2022/04/11 00:30:35;;;;;;;5.25;4.07;;;;;;;3.28;88.18;95765.75;6367489;22;20006;-59
2022/04/11 00:33:00;;;;;;;4.95;3.97;;;;;;;3.20;88.81;95767.97;6367917;22;20009;-58
2022/04/11 00:35:26;;;;;;;3.38;3.08;;;;;;;3.20;88.17;95757.56;6367417;22;20002;-59
2022/04/11 00:37:51;;;;;;;2.88;2.67;;;;;;;3.22;87.11;95753.94;6367377;22;20066;-58
2022/04/11 00:40:17;;;;;;;3.25;2.95;;;;;;;3.26;86.15;95762.41;6367231;22;20377;-58
2022/04/11 00:42:42;;;;;;;4.13;3.70;;;;;;;3.24;87.86;95757.28;6367181;22;20006;-59
2022/04/11 00:45:08;;;;;;;6.82;4.63;;;;;;;3.17;89.27;95758.59;6367050;22;20338;-58
2022/04/11 00:47:34;;;;;;;3.92;3.63;;;;;;;3.17;87.80;95752.56;6367387;22;20465;-59
2022/04/11 00:50:04;;;;;;;3.72;3.30;;;;;;;3.18;88.73;95759.44;6366960;22;20354;-59
2022/04/11 00:52:33;;;;;;;5.10;3.88;;;;;;;3.15;89.49;95748.28;6339535;22;20052;-59
2022/04/11 00:54:59;;;;;;;4.68;3.17;;;;;;;3.33;87.31;95744.66;6367008;22;20077;-59
2022/04/11 00:57:26;;;;;;;3.78;3.42;;;;;;;3.32;86.43;95743.81;6367478;22;20033;-58
2022/04/11 00:59:53;;;;;;;2.92;2.72;;;;;;;3.35;86.43;95740.19;6367291;22;20526;-59
2022/04/11 01:02:18;;;;;;;3.30;3.00;;;;;;;3.33;87.57;95750.69;6368023;22;20002;-59
2022/04/11 01:04:43;;;;;;;4.80;3.50;;;;;;;3.30;87.18;95740.47;6367138;22;20001;-59
2022/04/11 01:07:09;;;;;;;3.78;3.47;;;;;;;3.26;88.50;95749.41;6367218;22;20059;-59
2022/04/11 01:09:35;;;;;;;3.92;2.78;;;;;;;3.18;88.88;95743.81;6338751;22;20354;-59
2022/04/11 01:12:02;;;;;;;3.45;3.15;;;;;;;3.16;88.48;95743.94;6367036;22;20074;-59
2022/04/11 01:14:27;;;;;;;4.43;2.95;;;;;;;3.18;87.92;95742.06;6367395;22;20009;-58
2022/04/11 01:16:53;;;;;;;3.35;3.05;;;;;;;3.13;87.68;95744.94;6367139;22;20030;-59
2022/04/11 01:19:19;;;;;;;3.60;3.30;;;;;;;3.12;87.68;95748.47;6367305;22;20006;-59
2022/04/11 01:21:48;;;;;;;5.00;3.50;;;;;;;3.09;87.72;95748.66;6367157;22;20021;-59
2022/04/11 01:24:20;;;;;;;3.00;2.80;;;;;;;3.06;87.13;95754.06;6367266;22;20014;-59
2022/04/11 01:26:47;;;;;;;4.00;2.60;;;;;;;3.04;87.80;95742.06;6367202;22;20319;-59
2022/04/11 01:29:13;;;;;;;3.15;2.95;;;;;;;3.00;87.21;95744.03;6367177;22;20010;-58
2022/04/11 01:31:38;;;;;;;2.85;2.65;;;;;;;2.95;88.86;95748.66;6366964;22;20062;-58
2022/04/11 01:34:04;;;;;;;3.72;2.80;;;;;;;2.90;88.92;95750.72;6366931;22;20430;-59
2022/04/11 01:36:30;;;;;;;3.83;2.92;;;;;;;2.92;89.00;95747.09;6366818;22;20002;-59
2022/04/11 01:38:55;;;;;;;2.58;2.47;;;;;;;2.78;88.73;95755.75;6366775;22;20423;-59
2022/04/11 01:41:21;;;;;;;4.47;2.70;;;;;;;2.75;88.32;95755.09;6367010;22;19999;-58
2022/04/11 01:43:47;;;;;;;2.63;2.42;;;;;;;2.75;88.54;95755.09;6367053;22;19998;-58
2022/04/11 01:46:12;;;;;;;2.60;2.40;;;;;;;2.71;89.34;95755.28;6367085;22;20015;-59
2022/04/11 01:48:38;;;;;;;2.30;2.20;;;;;;;2.64;89.19;95751.34;6366778;22;20006;-59
2022/04/11 01:51:04;;;;;;;2.65;2.45;;;;;;;2.60;89.35;95749.06;6364905;22;20021;-59
2022/04/11 01:53:29;;;;;;;3.45;3.15;;;;;;;2.52;90.17;95763.31;6365816;22;20006;-59
2022/04/11 01:55:55;;;;;;;3.50;2.85;;;;;;;2.47;89.26;95756.75;6366041;22;20030;-59
2022/04/11 01:58:21;;;;;;;3.25;3.00;;;;;;;2.38;91.44;95753.75;6367030;22;20069;-59
2022/04/11 02:00:47;;;;;;;3.40;3.00;;;;;;;2.35;91.38;95758.31;6368564;22;20057;-59
2022/04/11 02:03:12;;;;;;;2.22;2.13;;;;;;;2.36;90.37;95753.00;6368955;22;20508;-59
2022/04/11 02:05:39;;;;;;;3.88;2.78;;;;;;;2.50;89.62;95756.56;6368556;22;20080;-59
2022/04/11 02:08:07;;;;;;;2.78;2.58;;;;;;;2.54;88.60;95756.28;6368782;22;20243;-59
2022/04/11 02:10:36;;;;;;;4.63;2.33;;;;;;;2.54;89.20;95764.09;6368927;22;20009;-59
2022/04/11 02:13:02;;;;;;;2.80;2.60;;;;;;;2.47;90.64;95767.97;6368906;22;20006;-59
2022/04/11 02:15:28;;;;;;;2.78;2.58;;;;;;;2.30;92.13;95766.34;6369301;22;20011;-59
2022/04/11 02:17:53;;;;;;;3.20;2.90;;;;;;;2.25;92.45;95771.00;6368964;22;20319;-59
2022/04/11 02:20:19;;;;;;;4.45;3.50;;;;;;;2.22;92.68;95761.59;6368597;22;20012;-59
2022/04/11 02:22:58;;;;;;;7.15;4.50;;;;;;;2.22;92.61;95768.56;6368726;22;20002;-58
2022/04/11 02:25:29;;;;;;;4.68;3.92;;;;;;;2.18;92.47;95767.91;6369074;22;20003;-58
2022/04/11 02:27:57;;;;;;;4.03;3.63;;;;;;;2.14;91.95;95767.22;6340727;22;20350;-59
2022/04/11 02:30:23;;;;;;;4.78;3.40;;;;;;;2.13;91.57;95765.56;6368449;22;20024;-59
2022/04/11 02:32:49;;;;;;;4.57;3.42;;;;;;;2.08;92.00;95764.16;6368755;22;19998;-57
2022/04/11 02:35:14;;;;;;;3.58;3.38;;;;;;;2.05;92.25;95769.50;6368654;22;20007;-59
2022/04/11 02:37:40;;;;;;;3.95;3.42;;;;;;;2.07;91.60;95776.31;6368550;22;20069;-59
2022/04/11 02:40:07;;;;;;;3.67;3.17;;;;;;;2.07;91.48;95778.06;6368315;22;20426;-59
2022/04/11 02:42:34;;;;;;;3.40;3.15;;;;;;;2.03;91.04;95771.38;6368382;22;20017;-59
2022/04/11 02:44:59;;;;;;;4.65;3.08;;;;;;;2.01;91.41;95771.47;6368455;22;20337;-59
2022/04/11 02:47:24;;;;;;;4.32;3.40;;;;;;;1.98;90.46;95769.88;6368466;22;20002;-59
2022/04/11 02:49:50;;;;;;;4.43;3.28;;;;;;;1.95;92.21;95766.59;6368549;22;20018;-59
2022/04/11 02:52:16;;;;;;;3.83;3.05;;;;;;;1.89;91.67;95773.00;6368819;22;20010;-59
2022/04/11 02:54:42;;;;;;;4.07;3.00;;;;;;;1.82;92.06;95761.28;6368799;22;20009;-59
2022/04/11 02:57:07;;;;;;;3.03;2.75;;;;;;;1.74;92.98;95768.66;6368511;22;20009;-59
2022/04/11 02:59:34;;;;;;;3.45;3.13;;;;;;;1.70;92.89;95771.44;6368350;22;20353;-59
2022/04/11 03:02:00;;;;;;;4.60;3.22;;;;;;;1.70;93.42;95779.22;6368103;22;20003;-57
2022/04/11 03:04:26;;;;;;;2.95;2.72;;;;;;;1.67;92.96;95778.53;6368520;22;20011;-59
2022/04/11 03:06:53;;;;;;;3.38;3.08;;;;;;;1.66;92.47;95772.53;6368065;22;20307;-59
2022/04/11 03:09:18;;;;;;;3.40;3.05;;;;;;;1.66;92.16;95769.94;6368022;22;20005;-59
2022/04/11 03:11:44;;;;;;;3.58;3.13;;;;;;;1.65;92.15;95768.25;6368184;22;20007;-58
2022/04/11 03:14:09;;;;;;;3.63;3.33;;;;;;;1.64;91.84;95763.97;6340270;22;20331;-59
2022/04/11 03:16:34;;;;;;;3.15;2.85;;;;;;;1.56;91.91;95760.97;6368118;22;20002;-57
2022/04/11 03:19:00;;;;;;;3.55;3.20;;;;;;;1.49;92.76;95762.25;6368049;22;20002;-58
2022/04/11 03:21:25;;;;;;;3.92;3.53;;;;;;;1.48;93.40;95764.00;6339949;22;19999;-59
2022/04/11 03:23:51;;;;;;;4.35;3.80;;;;;;;1.48;93.62;95758.78;6368039;22;20036;-57
2022/04/11 03:26:16;;;;;;;5.28;4.88;;;;;;;1.48;93.38;95758.78;6368122;22;20025;-58
2022/04/11 03:28:42;;;;;;;6.80;5.30;;;;;;;1.52;91.94;95762.06;6367826;22;20445;-58
2022/04/11 03:31:07;;;;;;;7.63;4.80;;;;;;;1.54;92.48;95758.44;6367826;22;19998;-57
2022/04/11 03:33:32;;;;;;;4.85;4.45;;;;;;;1.51;93.42;95752.63;6367924;22;20010;-59
2022/04/11 03:35:58;;;;;;;6.22;4.97;;;;;;;1.43;93.65;95748.66;6368070;22;20003;-59
2022/04/11 03:38:23;;;;;;;6.90;4.82;;;;;;;1.38;93.52;95750.69;6367836;22;20010;-59
2022/04/11 03:40:48;;;;;;;5.15;4.30;;;;;;;1.37;92.89;95745.59;6367613;22;20006;-59
2022/04/11 03:43:14;;;;;;;4.43;4.13;;;;;;;1.36;93.43;95746.50;6368000;22;20013;-59
2022/04/11 03:45:39;;;;;;;4.50;4.07;;;;;;;1.33;93.64;95739.72;6368003;22;20010;-59
2022/04/11 03:48:05;;;;;;;4.88;4.30;;;;;;;1.26;93.72;95744.41;6367716;22;19998;-59
2022/04/11 03:50:30;;;;;;;3.80;3.60;;;;;;;1.27;93.73;95740.06;6367565;22;20148;-59
2022/04/11 03:52:56;;;;;;;2.97;2.72;;;;;;;1.22;94.06;95742.09;6367784;22;20006;-58
2022/04/11 03:55:21;;;;;;;3.13;2.92;;;;;;;1.21;95.07;95735.19;6367955;22;20010;-59
2022/04/11 03:57:47;;;;;;;2.72;2.50;;;;;;;1.23;94.21;95734.19;6367754;22;20003;-59
2022/04/11 04:00:13;;;;;;;3.47;3.28;;;;;;;1.22;94.15;95734.31;6367635;22;20015;-59
2022/04/11 04:02:38;;;;;;;3.70;3.40;;;;;;;1.31;93.99;95728.59;6368482;22;20148;-59
2022/04/11 04:05:04;;;;;;;3.90;3.60;;;;;;;1.27;94.24;95725.31;6367726;22;20026;-59
2022/04/11 04:07:29;;;;;;;4.15;3.85;;;;;;;1.22;94.30;95722.16;6367500;22;20030;-59
2022/04/11 04:09:55;;;;;;;5.60;3.65;;;;;;;1.21;93.65;95714.44;6367502;22;20456;-59
2022/04/11 04:12:21;;;;;;;4.13;3.83;;;;;;;1.16;94.04;95704.34;6367549;22;20408;-59
2022/04/11 04:14:47;;;;;;;3.85;3.55;;;;;;;1.13;93.95;95707.94;6367903;22;20033;-59
2022/04/11 04:17:13;;;;;;;5.53;3.47;;;;;;;1.09;94.11;95702.97;6366143;22;20002;-59
2022/04/11 04:19:38;;;;;;;4.90;3.28;;;;;;;1.02;94.98;95704.25;6366958;22;20002;-59
2022/04/11 04:22:04;;;;;;;3.50;3.20;;;;;;;0.96;95.31;95700.22;6367214;22;20013;-59
2022/04/11 04:24:32;;;;;;;3.78;3.50;;;;;;;0.97;95.14;95702.75;6367837;22;20083;-59
2022/04/11 04:26:57;;;;;;;3.55;3.35;;;;;;;0.96;95.31;95698.47;6367528;22;20010;-59
2022/04/11 04:29:22;;;;;;;6.20;3.63;;;;;;;0.90;95.54;95693.63;6367449;22;20006;-59
2022/04/11 04:31:49;;;;;;;4.25;3.85;;;;;;;0.91;95.42;95702.22;6367342;22;20315;-58
2022/04/11 04:34:15;;;;;;;4.28;3.88;;;;;;;0.93;95.00;95709.03;6367512;22;20010;-59
2022/04/11 04:36:40;;;;;;;4.25;3.90;;;;;;;0.94;94.53;95702.06;6367512;22;20438;-60
2022/04/11 04:39:06;;;;;;;5.13;4.60;;;;;;;0.96;94.03;95700.22;6367155;22;20002;-59
2022/04/11 04:41:31;;;;;;;4.82;4.43;;;;;;;0.96;94.16;95702.81;6367234;22;19999;-59
2022/04/11 04:43:57;;;;;;;5.53;5.03;;;;;;;0.87;95.19;95701.56;6367242;22;19999;-59
2022/04/11 04:46:22;;;;;;;7.80;5.90;;;;;;;0.80;95.17;95701.06;6367169;22;20002;-59
2022/04/11 04:48:48;;;;;;;7.32;6.10;;;;;;;0.83;94.70;95703.50;6367607;22;20280;-59
2022/04/11 04:51:13;;;;;;;7.90;6.28;;;;;;;0.91;94.60;95699.63;6366832;22;20446;-59
2022/04/11 04:53:39;;;;;;;7.70;6.40;;;;;;;0.96;93.83;95697.63;6367213;22;20002;-59
2022/04/11 04:56:04;;;;;;;9.98;6.47;;;;;;;0.90;93.84;95705.75;6367151;22;20006;-59
2022/04/11 04:58:30;;;;;;;7.05;4.07;;;;;;;0.89;94.00;95702.34;6367111;22;20111;-59
2022/04/11 05:00:55;;;;;;;3.78;3.47;;;;;;;0.85;94.61;95699.06;6367264;22;20034;-59
2022/04/11 05:03:20;;;;;;;3.92;3.28;;;;;;;0.87;94.66;95711.09;6367083;22;19998;-59
2022/04/11 05:05:46;;;;;;;5.97;3.72;;;;;;;0.87;94.95;95711.91;6367046;22;19998;-59
2022/04/11 05:08:11;;;;;;;3.50;3.20;;;;;;;0.87;94.59;95718.88;6366809;22;20009;-58
2022/04/11 05:10:36;;;;;;;5.72;4.93;;;;;;;0.83;95.13;95718.19;6339202;22;20013;-59
2022/04/11 05:13:02;;;;;;;7.75;6.30;;;;;;;0.88;94.93;95728.31;6366982;22;20009;-59
2022/04/11 05:15:27;;;;;;;7.80;7.00;;;;;;;0.89;94.16;95724.81;6367037;22;20387;-59
2022/04/11 05:17:53;;;;;;;7.82;6.95;;;;;;;0.89;95.12;95720.47;6366938;22;20002;-59
2022/04/11 05:20:18;;;;;;;4.80;4.30;;;;;;;0.87;95.87;95727.47;6366553;22;20045;-59
2022/04/11 05:22:43;;;;;;;6.50;5.75;;;;;;;0.87;95.89;95722.28;6366277;22;20032;-59
2022/04/11 05:25:09;;;;;;;5.00;4.50;;;;;;;0.80;96.40;95723.53;6365878;22;20347;-59
2022/04/11 05:27:34;;;;;;;5.07;4.70;;;;;;;0.78;96.54;95722.78;6366051;22;19999;-57
2022/04/11 05:30:00;;;;;;;6.03;4.82;;;;;;;0.79;96.18;95730.50;6367125;22;20007;-59
2022/04/11 05:32:25;;;;;;;6.30;4.25;;;;;;;0.83;96.30;95732.00;6338742;22;20025;-59
2022/04/11 05:34:50;;;;;;;4.97;4.40;;;;;;;0.88;95.89;95728.31;6366920;22;20002;-59
2022/04/11 05:37:16;;;;;;;5.90;5.30;;;;;;;0.84;96.79;95740.59;6367203;22;20418;-59
2022/04/11 05:39:42;;;;;;;5.95;5.35;;;;;;;0.80;96.60;95736.50;6366859;22;20071;-59
2022/04/11 05:42:07;;;;;;;7.45;4.80;;;;;;;0.88;95.90;95731.72;6366563;22;20002;-59
2022/04/11 05:44:33;;;;;;;5.63;4.95;;;;;;;0.94;96.82;95738.34;6366254;22;20003;-58
2022/04/11 05:46:58;;;;;;;5.15;4.53;;;;;;;0.95;96.66;95738.28;6366876;22;20052;-59
2022/04/11 05:49:24;;;;;;;8.75;6.13;;;;;;;0.97;96.87;95738.19;6366488;22;20044;-59
2022/04/11 05:51:50;;;;;;;10.75;6.20;;;;;;;1.00;96.33;95731.09;6365672;22;19998;-60
2022/04/11 05:54:15;;;;;;;8.52;6.75;;;;;;;1.02;96.51;95738.81;6365264;22;20002;-59
2022/04/11 05:56:41;;;;;;;7.63;6.40;;;;;;;1.07;96.12;95739.38;6366448;22;20010;-58
2022/04/11 05:59:08;;;;;;;7.93;6.93;;;;;;;1.13;95.59;95733.88;6365783;22;20010;-58
2022/04/11 06:01:34;;;;;;;7.32;6.55;;;;;;;1.10;96.03;95728.00;6366764;22;20002;-60
2022/04/11 06:04:00;;;;;;;8.80;7.43;;;;;;;1.14;96.38;95732.13;6366804;22;20006;-61
2022/04/11 06:06:25;;;;;;;10.60;9.50;;;;;;;1.21;95.10;95730.00;6366259;22;20081;-62
2022/04/11 06:08:51;;;;;;;9.57;7.30;;;;;;;1.18;95.23;95732.78;6366825;22;20495;-61
2022/04/11 06:11:17;;;;;;;13.90;11.23;;;;;;;1.17;95.07;95724.16;6367047;22;20011;-64
2022/04/11 06:13:45;;;;;;;12.95;7.80;;;;;;;1.21;95.06;95727.41;6365695;22;20002;-62
2022/04/11 06:16:13;;;;;;;7.47;6.50;;;;;;;1.24;95.26;95722.91;6366695;22;20002;-60
2022/04/11 06:18:39;;;;;;;7.18;6.30;;;;;;;1.28;94.72;95733.97;6365443;22;20002;-59
2022/04/11 06:21:04;;;;;;;6.85;6.15;;;;;;;1.29;94.95;95722.66;6365319;22;20018;-60
2022/04/11 06:23:29;;;;;;;8.75;6.75;;;;;;;1.29;95.50;95728.66;6366666;22;20018;-60
2022/04/11 06:25:55;;;;;;;12.57;6.68;;;;;;;1.34;95.31;95736.22;6366594;22;20343;-61
2022/04/11 06:28:20;;;;;;;13.95;10.55;;;;;;;1.41;94.81;95737.53;6364879;22;20003;-60
2022/04/11 06:30:45;;;;;;;15.02;10.80;;;;;;;1.52;93.84;95742.13;6365016;22;19998;-61
2022/04/11 06:33:11;;;;;;;10.48;9.10;;;;;;;1.58;94.12;95722.78;6364793;22;20006;-60
2022/04/11 06:35:36;;;;;;;10.93;9.82;;;;;;;1.63;94.53;95732.94;6364561;22;20104;-61
2022/04/11 06:38:02;;;;;;;10.18;9.05;;;;;;;2.00;94.43;95733.44;6364892;22;20271;-61
2022/04/11 06:40:27;;;;;;;17.65;9.00;;;;;;;3.10;90.04;95729.53;6364320;22;20461;-61
2022/04/11 06:42:52;;;;;;;8.50;6.40;;;;;;;4.47;84.83;95719.97;6364747;22;20390;-61
2022/04/11 06:45:18;;;;;;;8.02;6.40;;;;;;;5.87;79.26;95722.38;6338613;22;20009;-61
2022/04/11 06:47:44;;;;;;;10.30;6.75;;;;;;;6.79;74.59;95723.47;6366612;22;20041;-60
2022/04/11 06:50:10;;;;;;;27.98;14.45;;;;;;;6.99;71.00;95718.50;6366637;22;20011;-61
2022/04/11 06:52:36;;;;;;;19.38;10.00;;;;;;;7.91;69.77;95719.16;6367069;22;20055;-61
2022/04/11 06:55:01;;;;;;;20.23;9.10;;;;;;;8.66;68.24;95713.94;6366613;22;20043;-61
2022/04/11 06:57:27;;;;;;;14.80;7.97;;;;;;;9.23;62.47;95708.25;6366785;22;20324;-61
2022/04/11 06:59:52;;;;;;;9.32;5.18;;;;;;;10.26;59.87;95719.31;6366245;22;20020;-60
2022/04/11 07:02:18;;;;;;;2.83;2.50;;;;;;;10.18;57.01;95713.94;6366602;22;19998;-61
2022/04/11 07:04:44;;;;;;;3.22;1.90;;;;;;;10.60;56.65;95720.69;6366706;22;20009;-61
2022/04/11 07:07:09;;;;;;;4.40;2.00;;;;;;;10.20;54.35;95719.88;6366377;22;20426;-61
2022/04/11 07:09:34;;;;;;;1.58;1.58;;;;;;;10.28;54.04;95716.56;6367227;22;20594;-61
2022/04/11 07:12:00;;;;;;;3.15;1.50;;;;;;;10.85;53.04;95713.19;6366034;22;19999;-61
2022/04/11 07:14:25;;;;;;;1.60;1.50;;;;;;;11.26;52.22;95707.59;6365138;22;20007;-60
2022/04/11 07:16:52;;;;;;;3.83;3.40;;;;;;;11.99;51.74;95711.22;6366119;22;20033;-60
2022/04/11 07:19:18;;;;;;;10.27;8.15;;;;;;;12.49;49.91;95709.88;6366346;22;20017;-61
2022/04/11 07:21:46;;;;;;;2.67;2.40;;;;;;;12.82;46.25;95704.78;6338236;22;20006;-61
2022/04/11 07:24:11;;;;;;;1.70;1.60;;;;;;;12.70;49.39;95709.50;6366541;22;20004;-61
2022/04/11 07:26:37;;;;;;;1.40;1.30;;;;;;;12.69;49.07;95709.66;6366723;22;20010;-61
2022/04/11 07:29:02;;;;;;;4.45;1.25;;;;;;;12.48;49.95;95705.53;6366425;22;20434;-61
2022/04/11 07:31:28;;;;;;;0.98;0.98;;;;;;;12.46;48.04;95720.69;6366917;22;19998;-61
2022/04/11 07:33:53;;;;;;;1.25;1.25;;;;;;;13.02;46.46;95707.22;6366604;22;20006;-61
2022/04/11 07:36:19;;;;;;;1.10;1.10;;;;;;;13.20;47.07;95704.50;6366491;22;20034;-60
2022/04/11 07:38:44;;;;;;;1.55;1.10;;;;;;;13.51;47.29;95711.09;6366463;22;19998;-61
2022/04/11 07:41:10;;;;;;;1.80;1.15;;;;;;;13.68;46.43;95702.25;6365993;22;20014;-61
2022/04/11 07:43:35;;;;;;;0.95;0.90;;;;;;;13.40;46.02;95699.81;6366556;22;20005;-60
2022/04/11 07:46:01;;;;;;;3.80;1.20;;;;;;;13.30;45.44;95714.94;6366253;22;19998;-61
2022/04/11 07:48:27;;;;;;;1.48;1.40;;;;;;;13.38;45.90;95700.94;6366300;22;20007;-61
2022/04/11 07:50:52;;;;;;;1.10;1.08;;;;;;;12.56;47.88;95712.69;6366149;22;20019;-61
2022/04/11 07:53:18;;;;;;;1.42;1.40;;;;;;;11.88;48.57;95704.34;6366219;22;20439;-61
2022/04/11 07:55:44;;;;;;;3.90;2.00;;;;;;;11.52;47.53;95699.84;6365766;22;20600;-61
2022/04/11 07:58:09;;;;;;;2.00;1.70;;;;;;;11.56;50.78;95703.00;6365073;22;20457;-61
2022/04/11 08:00:35;;;;;;;1.70;1.60;;;;;;;11.92;47.82;95686.38;6365166;22;20002;-61
2022/04/11 08:03:00;;;;;;;2.20;2.00;;;;;;;12.20;49.17;95694.28;6364450;22;19998;-61
2022/04/11 08:05:26;;;;;;;2.47;1.40;;;;;;;13.06;48.21;95690.06;6365003;22;20002;-60
2022/04/11 08:07:52;;;;;;;1.40;1.40;;;;;;;13.29;45.83;95692.16;6366094;22;20550;-61
2022/04/11 08:10:18;;;;;;;2.97;1.70;;;;;;;13.75;44.96;95694.50;6366176;22;20033;-61
2022/04/11 08:12:52;;;;;;;1.70;1.60;;;;;;;13.73;44.22;95691.19;6365660;22;19998;-61
2022/04/11 08:15:17;;;;;;;2.15;1.80;;;;;;;13.83;45.89;95688.41;6365632;22;20032;-61
2022/04/11 08:17:43;;;;;;;1.65;1.48;;;;;;;13.98;44.74;95697.34;6366129;22;20010;-60
2022/04/11 08:20:09;;;;;;;1.60;1.50;;;;;;;14.07;43.93;95694.72;6365417;22;20009;-60
2022/04/11 08:22:34;;;;;;;2.45;1.45;;;;;;;14.32;42.89;95691.09;6365783;22;19998;-63
2022/04/11 08:24:59;;;;;;;1.33;1.27;;;;;;;14.40;40.12;95695.56;6365948;22;20001;-61
2022/04/11 08:27:25;;;;;;;1.35;1.30;;;;;;;14.31;41.44;95689.44;6365987;22;20063;-61
2022/04/11 08:29:50;;;;;;;1.35;1.33;;;;;;;14.69;39.74;95691.56;6364854;22;20002;-61
2022/04/11 08:32:17;;;;;;;1.25;1.13;;;;;;;15.09;40.31;95678.41;6365907;22;20006;-61
2022/04/11 08:34:43;;;;;;;1.27;1.25;;;;;;;15.49;37.30;95686.41;6365671;22;20002;-60
2022/04/11 08:37:08;;;;;;;1.98;1.30;;;;;;;16.19;36.65;95681.19;6365689;22;20033;-60
2022/04/11 08:39:33;;;;;;;2.33;1.52;;;;;;;16.20;35.44;95684.69;6365773;22;20006;-61
2022/04/11 08:42:00;;;;;;;1.48;1.33;;;;;;;15.96;35.89;95671.38;6365709;22;20014;-60
2022/04/11 08:44:26;;;;;;;1.10;1.10;;;;;;;16.26;33.45;95676.00;6366098;22;20006;-61
2022/04/11 08:46:54;;;;;;;1.10;1.10;;;;;;;15.68;34.81;95674.53;6365581;22;20512;-60
2022/04/11 08:49:19;;;;;;;1.30;1.23;;;;;;;16.29;36.97;95667.66;6365256;22;20091;-61
2022/04/11 08:51:45;;;;;;;1.17;1.02;;;;;;;16.70;33.93;95662.00;6364590;22;20002;-60
2022/04/11 08:54:11;;;;;;;4.35;1.08;;;;;;;16.52;32.53;95677.44;6364976;22;20086;-61
2022/04/11 08:56:36;;;;;;;1.00;1.00;;;;;;;15.45;35.88;95672.63;6364466;22;20002;-61
2022/04/11 08:59:02;;;;;;;2.03;1.17;;;;;;;16.10;34.06;95661.81;6365261;22;20005;-61
2022/04/11 09:01:28;;;;;;;0.93;0.93;;;;;;;15.56;35.16;95667.94;6365907;22;20006;-61
2022/04/11 09:03:54;;;;;;;1.50;0.93;;;;;;;15.16;35.37;95663.47;6363216;22;20006;-59
2022/04/11 09:06:22;;;;;;;1.17;1.10;;;;;;;15.14;34.76;95667.28;6364806;22;20044;-61
2022/04/11 09:08:53;;;;;;;1.17;1.10;;;;;;;15.69;33.84;95668.22;6365446;22;20361;-61
2022/04/11 09:11:31;;;;;;;2.78;1.42;;;;;;;15.07;34.98;95661.84;6364255;22;20006;-61
2022/04/11 09:14:00;;;;;;;1.48;1.02;;;;;;;15.35;35.93;95663.25;6364563;22;20002;-60
2022/04/11 09:16:26;;;;;;;2.75;1.20;;;;;;;15.45;35.93;95662.03;6364453;22;20006;-61
2022/04/11 09:18:53;;;;;;;0.93;0.93;;;;;;;15.93;34.77;95652.34;6364933;22;20010;-61
2022/04/11 09:21:20;;;;;;;1.25;1.17;;;;;;;16.24;32.38;95644.28;6364590;22;20045;-61
2022/04/11 09:23:47;;;;;;;1.95;0.98;;;;;;;15.84;32.66;95647.03;6365570;22;20005;-61
2022/04/11 09:26:17;;;;;;;1.23;1.00;;;;;;;16.23;31.39;95655.91;6365453;22;19998;-62
2022/04/11 09:28:42;;;;;;;1.00;1.00;;;;;;;16.62;32.49;95651.47;6365321;22;20145;-61
2022/04/11 09:31:08;;;;;;;1.20;1.10;;;;;;;17.44;31.19;95651.56;6364992;22;20154;-59
2022/04/11 09:33:38;;;;;;;1.00;1.00;;;;;;;17.54;32.73;95645.94;6365385;22;20010;-60
2022/04/11 09:36:04;;;;;;;1.35;1.25;;;;;;;17.25;34.32;95634.34;6363819;22;20001;-61
2022/04/11 09:38:36;;;;;;;2.00;1.90;;;;;;;17.64;30.32;95633.19;6365726;22;20079;-61
2022/04/11 09:41:02;;;;;;;1.83;1.40;;;;;;;17.92;32.30;95628.97;6364511;22;20006;-60
2022/04/11 09:43:29;;;;;;;2.88;2.10;;;;;;;18.83;31.88;95625.63;6365138;22;20030;-59
2022/04/11 09:45:56;;;;;;;3.35;2.25;;;;;;;19.45;29.13;95616.91;6365180;22;20001;-59
2022/04/11 09:48:24;;;;;;;2.03;1.83;;;;;;;19.62;29.13;95617.41;6364998;22;19998;-61
2022/04/11 09:50:51;;;;;;;2.08;1.52;;;;;;;19.37;30.35;95620.59;6365600;22;20021;-59
2022/04/11 09:53:22;;;;;;;1.38;1.27;;;;;;;19.42;29.71;95623.50;6365417;22;20010;-57
2022/04/11 09:55:52;;;;;;;1.20;1.20;;;;;;;19.52;29.64;95614.28;6364365;22;20002;-58
2022/04/11 09:58:19;;;;;;;2.75;1.27;;;;;;;19.46;30.45;95614.06;6364532;22;19999;-59
2022/04/11 10:00:45;;;;;;;1.10;1.10;;;;;;;19.53;31.05;95611.41;6364245;22;20007;-58
2022/04/11 10:03:11;;;;;;;1.00;1.00;;;;;;;20.35;29.49;95604.38;6364892;22;20272;-59
2022/04/11 10:05:38;;;;;;;1.90;1.50;;;;;;;20.91;27.94;95613.81;6364250;22;20006;-59
2022/04/11 10:08:06;;;;;;;2.50;1.50;;;;;;;20.87;27.24;95608.06;6364909;22;20090;-58
2022/04/11 10:10:34;;;;;;;1.83;1.73;;;;;;;21.13;25.20;95609.03;6365569;22;20002;-59
2022/04/11 10:13:01;;;;;;;1.85;1.33;;;;;;;21.25;25.44;95600.34;6364134;22;20536;-58
2022/04/11 10:15:26;;;;;;;2.42;1.20;;;;;;;20.71;26.02;95601.28;6364965;22;20009;-58
2022/04/11 10:17:54;;;;;;;2.28;1.23;;;;;;;21.50;25.99;95596.94;6365393;22;20350;-58
2022/04/11 10:20:28;;;;;;;1.33;1.23;;;;;;;20.33;25.41;95585.88;6366790;22;20110;-58
2022/04/11 10:23:07;;;;;;;1.80;1.00;;;;;;;20.38;25.70;95588.78;6366967;22;20123;-59
2022/04/11 10:25:38;;;;;;;1.52;1.42;;;;;;;19.94;25.72;95582.16;6366775;22;20018;-58
2022/04/11 10:28:42;;;;;;;1.20;1.20;;;;;;;20.99;24.30;95575.31;6367112;22;20081;-58
2022/04/11 10:31:10;;;;;;;3.03;1.02;;;;;;;21.30;24.40;95579.09;6342862;22;20081;-58
2022/04/11 10:33:54;;;;;;;3.60;1.30;;;;;;;20.66;26.22;95568.16;6367541;22;20002;-59
2022/04/11 10:36:30;;;;;;;1.20;1.20;;;;;;;20.63;25.56;95573.91;6366833;22;20005;-60
2022/04/11 10:39:14;;;;;;;3.92;1.60;;;;;;;19.99;27.91;95563.66;6366285;22;20486;-59
2022/04/11 10:41:57;;;;;;;5.30;3.75;;;;;;;19.97;27.29;95566.53;6366726;22;20465;-59
2022/04/11 10:44:29;;;;;;;2.55;1.30;;;;;;;20.76;26.04;95568.56;6366452;22;20470;-59
2022/04/11 10:47:10;;;;;;;1.52;1.00;;;;;;;20.11;26.23;95558.53;6366594;22;20006;-59
2022/04/11 10:49:44;;;;;;;1.13;1.05;;;;;;;20.47;23.42;95558.09;6366257;22;20018;-59
2022/04/11 10:52:35;;;;;;;1.48;1.38;;;;;;;20.30;26.73;95555.03;6366596;22;20006;-59
2022/04/11 10:55:06;;;;;;;2.53;1.25;;;;;;;20.97;25.20;95547.94;6365753;22;20003;-60
2022/04/11 10:57:42;;;;;;;2.45;1.25;;;;;;;20.57;26.03;95546.19;6367177;22;20026;-59
2022/04/11 11:00:24;;;;;;;1.30;1.20;;;;;;;20.67;25.55;95545.72;6366473;22;19998;-61
2022/04/11 11:02:52;;;;;;;1.63;1.50;;;;;;;21.33;25.24;95544.72;6366617;22;20002;-60
2022/04/11 11:05:33;;;;;;;1.05;0.95;;;;;;;21.41;23.97;95534.78;6366327;22;20334;-61
2022/04/11 11:08:08;;;;;;;4.13;1.20;;;;;;;21.75;23.48;95527.41;6366443;22;20003;-59
2022/04/11 11:10:46;;;;;;;3.00;1.10;;;;;;;21.52;24.22;95527.91;6366714;22;20435;-58
2022/04/11 11:13:40;;;;;;;2.72;1.00;;;;;;;21.44;24.44;95524.47;6366196;22;20009;-61
2022/04/11 11:16:08;;;;;;;1.02;0.93;;;;;;;22.03;22.96;95527.00;6365246;22;20002;-60
2022/04/11 11:18:48;;;;;;;1.05;1.05;;;;;;;21.29;24.40;95523.91;6365834;22;20006;-62
2022/04/11 11:21:32;;;;;;;0.88;0.80;;;;;;;21.63;22.79;95529.94;6366071;22;20014;-61
2022/04/11 11:24:12;;;;;;;2.38;1.25;;;;;;;21.30;24.70;95515.69;6366254;22;20024;-61
2022/04/11 11:26:40;;;;;;;1.27;1.17;;;;;;;21.81;24.44;95517.69;6366614;22;20006;-61
2022/04/11 11:29:29;;;;;;;0.80;0.80;;;;;;;22.09;23.26;95514.56;6366141;22;20077;-61
2022/04/11 11:32:00;;;;;;;1.30;1.20;;;;;;;22.14;24.66;95514.75;6366406;22;20069;-61
2022/04/11 11:34:28;;;;;;;1.20;1.10;;;;;;;22.20;23.57;95512.22;6366611;22;20010;-57
2022/04/11 11:37:00;;;;;;;2.22;1.15;;;;;;;22.14;23.68;95503.19;6366232;22;19998;-57